createdAt,value
2023-07-25T00:01:22.586Z,4.55
2023-07-25T00:03:50.263Z,4.07
2023-07-25T00:06:19.183Z,4.50
2023-07-25T00:08:46.966Z,6.88
2023-07-25T00:11:15.471Z,4.80
2023-07-25T00:13:43.137Z,4.28
2023-07-25T00:16:10.814Z,6.47
2023-07-25T00:18:38.469Z,4.88
2023-07-25T00:21:06.045Z,3.28
2023-07-25T00:23:33.650Z,4.93
2023-07-25T00:26:01.254Z,4.35
2023-07-25T00:28:28.897Z,4.55
2023-07-25T00:30:56.462Z,4.78
2023-07-25T00:33:24.334Z,4.93
2023-07-25T00:35:53.699Z,4.82
2023-07-25T00:38:21.597Z,5.97
2023-07-25T00:40:49.301Z,7.20
2023-07-25T00:43:17.090Z,4.90
2023-07-25T00:45:44.918Z,5.07
2023-07-25T00:48:13.671Z,4.90
2023-07-25T00:50:41.351Z,5.18
2023-07-25T00:53:11.119Z,6.60
2023-07-25T00:55:39.540Z,7.50
2023-07-25T00:58:07.516Z,6.00
2023-07-25T01:00:35.378Z,6.32
2023-07-25T01:03:03.246Z,4.97
2023-07-25T01:05:35.926Z,5.43
2023-07-25T01:08:03.760Z,11.60
2023-07-25T01:10:33.832Z,7.93
2023-07-25T01:13:02.346Z,6.10
2023-07-25T01:15:31.323Z,7.68
2023-07-25T01:17:59.600Z,6.43
2023-07-25T01:20:27.505Z,7.63
2023-07-25T01:22:56.193Z,5.93
2023-07-25T01:25:23.863Z,5.35
2023-07-25T01:27:51.735Z,6.65
2023-07-25T01:30:19.694Z,5.78
2023-07-25T01:32:47.439Z,7.47
2023-07-25T01:35:15.061Z,5.32
2023-07-25T01:37:43.029Z,6.28
2023-07-25T01:40:11.401Z,4.70
2023-07-25T01:42:39.324Z,4.50
2023-07-25T01:45:07.672Z,4.93
2023-07-25T01:47:35.369Z,4.03
2023-07-25T01:50:02.975Z,5.03
2023-07-25T01:52:31.158Z,3.78
2023-07-25T01:54:58.808Z,4.47
2023-07-25T01:57:26.427Z,3.70
2023-07-25T01:59:54.097Z,5.53
2023-07-25T02:02:21.987Z,4.25
2023-07-25T02:04:49.660Z,4.03
2023-07-25T02:07:17.337Z,3.90
2023-07-25T02:09:45.053Z,5.32
2023-07-25T02:12:12.968Z,8.45
2023-07-25T02:14:40.644Z,3.75
2023-07-25T02:17:08.430Z,3.45
2023-07-25T02:19:36.378Z,4.95
2023-07-25T02:22:04.035Z,4.47
2023-07-25T02:24:31.841Z,5.05
2023-07-25T02:26:59.654Z,3.97
2023-07-25T02:29:27.323Z,4.38
2023-07-25T02:31:54.891Z,3.28
2023-07-25T02:34:22.781Z,7.93
2023-07-25T02:36:58.698Z,4.50
2023-07-25T02:39:26.364Z,4.40
2023-07-25T02:41:53.931Z,4.75
2023-07-25T02:44:21.611Z,4.22
2023-07-25T02:46:49.220Z,4.53
2023-07-25T02:49:16.869Z,3.53
2023-07-25T02:51:44.653Z,5.43
2023-07-25T02:54:12.217Z,5.32
2023-07-25T02:56:39.871Z,5.35
2023-07-25T02:59:07.493Z,4.13
2023-07-25T03:01:35.100Z,5.25
2023-07-25T03:04:02.759Z,4.07
2023-07-25T03:06:30.409Z,3.63
2023-07-25T03:08:58.025Z,4.32
2023-07-25T03:11:25.770Z,5.53
2023-07-25T03:13:53.461Z,4.32
2023-07-25T03:16:21.188Z,3.42
2023-07-25T03:18:48.834Z,3.60
2023-07-25T03:21:16.526Z,3.83
2023-07-25T03:23:44.143Z,3.03
2023-07-25T03:26:13.239Z,2.72
2023-07-25T03:28:40.852Z,5.05
2023-07-25T03:31:08.915Z,4.90
2023-07-25T03:33:36.640Z,4.35
2023-07-25T03:36:05.236Z,4.60
2023-07-25T03:38:33.213Z,4.47
2023-07-25T03:41:01.065Z,2.90
2023-07-25T03:43:28.810Z,4.03
2023-07-25T03:45:56.714Z,3.67
2023-07-25T03:48:24.388Z,4.10
2023-07-25T03:50:52.041Z,3.00
2023-07-25T03:53:20.031Z,3.95
2023-07-25T03:55:47.629Z,3.67
2023-07-25T03:58:15.272Z,4.85
2023-07-25T04:00:43.036Z,4.22
2023-07-25T04:03:15.382Z,4.13
2023-07-25T04:05:43.957Z,3.90
2023-07-25T04:08:11.781Z,3.90
2023-07-25T04:10:40.055Z,4.07
2023-07-25T04:13:07.918Z,3.47
2023-07-25T04:15:35.546Z,5.72
2023-07-25T04:18:03.325Z,3.15
2023-07-25T04:20:31.074Z,5.72
2023-07-25T04:23:00.081Z,5.15
2023-07-25T04:25:28.638Z,2.45
2023-07-25T04:27:56.397Z,3.70
2023-07-25T04:30:24.334Z,5.47
2023-07-25T04:32:52.026Z,3.67
2023-07-25T04:35:19.749Z,4.50
2023-07-25T04:37:47.359Z,3.05
2023-07-25T04:40:15.172Z,4.28
2023-07-25T04:42:42.956Z,6.45
2023-07-25T04:45:11.446Z,4.40
2023-07-25T04:47:39.507Z,6.63
2023-07-25T04:50:07.657Z,3.83
2023-07-25T04:52:36.461Z,4.00
2023-07-25T04:55:04.533Z,5.75
2023-07-25T04:57:35.140Z,3.03
2023-07-25T05:00:03.107Z,3.65
2023-07-25T05:02:35.353Z,5.63
2023-07-25T05:05:03.243Z,2.92
2023-07-25T05:07:34.239Z,5.75
2023-07-25T05:10:02.102Z,6.78
2023-07-25T05:12:33.197Z,4.30
2023-07-25T05:15:00.844Z,2.90
2023-07-25T05:17:28.881Z,4.40
2023-07-25T05:19:56.606Z,5.15
2023-07-25T05:22:24.165Z,5.35
2023-07-25T05:24:51.949Z,3.95
2023-07-25T05:27:19.684Z,3.88
2023-07-25T05:29:47.365Z,3.97
2023-07-25T05:32:14.900Z,5.25
2023-07-25T05:34:42.533Z,5.28
2023-07-25T05:37:10.237Z,4.53
2023-07-25T05:39:37.854Z,4.30
2023-07-25T05:42:05.707Z,2.85
2023-07-25T05:44:33.352Z,4.93
2023-07-25T05:47:04.410Z,4.28
2023-07-25T05:49:32.338Z,3.22
2023-07-25T05:51:59.973Z,3.85
2023-07-25T05:54:31.204Z,3.05
2023-07-25T05:56:58.834Z,2.90
2023-07-25T05:59:26.446Z,4.20
2023-07-25T06:01:54.257Z,4.00
2023-07-25T06:04:21.838Z,2.63
2023-07-25T06:06:49.533Z,3.45
2023-07-25T06:09:17.250Z,2.72
2023-07-25T06:11:44.839Z,3.95
2023-07-25T06:14:12.453Z,3.10
2023-07-25T06:16:40.241Z,4.95
2023-07-25T06:19:08.122Z,3.45
2023-07-25T06:21:35.770Z,2.78
2023-07-25T06:24:03.486Z,3.90
2023-07-25T06:26:31.166Z,3.83
2023-07-25T06:28:59.416Z,5.38
2023-07-25T06:31:27.331Z,3.33
2023-07-25T06:33:54.992Z,3.72
2023-07-25T06:36:22.627Z,3.78
2023-07-25T06:38:50.377Z,5.53
2023-07-25T06:41:17.990Z,5.55
2023-07-25T06:43:45.854Z,3.75
2023-07-25T06:46:14.107Z,4.97
2023-07-25T06:48:41.795Z,3.75
2023-07-25T06:51:09.466Z,2.85
2023-07-25T06:53:37.131Z,4.50
2023-07-25T06:56:05.234Z,4.07
2023-07-25T06:58:32.897Z,6.28
2023-07-25T07:01:00.693Z,4.00
2023-07-25T07:03:28.395Z,6.45
2023-07-25T07:05:56.590Z,5.68
2023-07-25T07:08:25.029Z,3.35
2023-07-25T07:10:55.762Z,3.88
2023-07-25T07:13:24.883Z,2.65
2023-07-25T07:15:53.075Z,4.30
2023-07-25T07:18:21.074Z,4.28
2023-07-25T07:20:50.067Z,6.65
2023-07-25T07:23:18.356Z,3.30
2023-07-25T07:25:46.525Z,4.95
2023-07-25T07:28:15.002Z,4.85
2023-07-25T07:30:42.863Z,3.85
2023-07-25T07:33:10.540Z,3.10
2023-07-25T07:35:38.226Z,4.68
2023-07-25T07:38:06.048Z,4.30
2023-07-25T07:40:36.824Z,5.60
2023-07-25T07:43:04.568Z,3.40
2023-07-25T07:45:32.932Z,4.57
2023-07-25T07:48:01.742Z,3.70
2023-07-25T07:50:34.625Z,3.08
2023-07-25T07:53:02.524Z,5.25
2023-07-25T07:55:30.374Z,3.47
2023-07-25T07:57:58.088Z,3.65
2023-07-25T08:00:25.715Z,4.18
2023-07-25T08:02:53.882Z,2.78
2023-07-25T08:05:21.845Z,4.90
2023-07-25T08:07:49.561Z,4.90
2023-07-25T08:10:17.441Z,5.47
2023-07-25T08:12:46.159Z,3.85
2023-07-25T08:15:13.843Z,6.32
2023-07-25T08:17:41.521Z,5.05
2023-07-25T08:20:09.673Z,4.53
2023-07-25T08:22:37.304Z,2.95
2023-07-25T08:25:05.127Z,4.75
2023-07-25T08:27:33.277Z,3.08
2023-07-25T08:30:01.056Z,2.78
2023-07-25T08:32:29.629Z,5.00
2023-07-25T08:34:57.396Z,4.70
2023-07-25T08:37:26.536Z,3.60
2023-07-25T08:39:54.287Z,2.92
2023-07-25T08:42:25.257Z,2.92
2023-07-25T08:44:56.079Z,4.47
2023-07-25T08:47:28.808Z,2.50
2023-07-25T08:49:59.577Z,3.28
2023-07-25T08:52:33.526Z,2.55
2023-07-25T08:55:01.394Z,4.28
2023-07-25T08:57:30.708Z,4.35
2023-07-25T08:59:59.148Z,4.30
2023-07-25T09:02:27.579Z,4.10
2023-07-25T09:04:55.985Z,4.47
2023-07-25T09:07:23.726Z,3.40
2023-07-25T09:09:51.370Z,3.22
2023-07-25T09:12:19.442Z,3.40
2023-07-25T09:14:47.215Z,2.78
2023-07-25T09:17:14.819Z,3.55
2023-07-25T09:19:43.080Z,2.22
2023-07-25T09:22:30.222Z,3.38
2023-07-25T09:24:58.998Z,4.38
2023-07-25T09:27:27.996Z,3.17
2023-07-25T09:29:55.831Z,3.55
2023-07-25T09:32:29.252Z,3.97
2023-07-25T09:35:07.206Z,2.53
2023-07-25T09:37:34.967Z,3.95
2023-07-25T09:40:02.723Z,4.20
2023-07-25T09:42:32.084Z,3.70
2023-07-25T09:45:00.006Z,3.25
2023-07-25T09:47:29.545Z,3.63
2023-07-25T09:49:58.503Z,3.10
2023-07-25T09:52:26.991Z,3.55
2023-07-25T09:54:54.611Z,3.10
2023-07-25T09:57:22.549Z,4.43
2023-07-25T09:59:53.244Z,4.07
2023-07-25T10:02:21.477Z,4.35
2023-07-25T10:04:50.822Z,4.10
2023-07-25T10:07:19.885Z,3.38
2023-07-25T10:09:49.400Z,3.15
2023-07-25T10:12:17.073Z,2.55
2023-07-25T10:14:44.776Z,3.85
2023-07-25T10:17:12.744Z,2.95
2023-07-25T10:19:51.985Z,3.35
2023-07-25T10:22:45.857Z,2.60
2023-07-25T10:25:20.624Z,7.38
2023-07-25T10:27:54.153Z,4.65
2023-07-25T10:30:32.946Z,4.93
2023-07-25T10:33:02.703Z,3.67
2023-07-25T10:35:46.886Z,3.17
2023-07-25T10:38:15.992Z,3.78
2023-07-25T10:40:56.671Z,3.58
2023-07-25T10:43:29.775Z,4.57
2023-07-25T10:46:01.620Z,2.25
2023-07-25T10:48:37.693Z,2.75
2023-07-25T10:51:08.609Z,2.80
2023-07-25T10:53:36.698Z,5.47
2023-07-25T10:56:10.110Z,2.80
2023-07-25T10:59:02.471Z,3.65
2023-07-25T11:01:49.706Z,3.20
2023-07-25T11:04:32.460Z,5.65
2023-07-25T11:07:11.070Z,5.68
2023-07-25T11:09:43.497Z,4.88
2023-07-25T11:12:12.492Z,4.38
2023-07-25T11:14:46.262Z,3.80
2023-07-25T11:17:14.538Z,4.35
2023-07-25T11:19:42.366Z,3.83
2023-07-25T11:22:12.215Z,2.97
2023-07-25T11:24:49.882Z,2.65
2023-07-25T11:27:17.484Z,3.78
2023-07-25T11:29:45.260Z,2.72
2023-07-25T11:32:12.974Z,2.53
2023-07-25T11:34:41.427Z,3.88
2023-07-25T11:37:13.575Z,3.75
2023-07-25T11:39:41.379Z,4.93
2023-07-25T11:42:09.954Z,3.03
2023-07-25T11:44:38.198Z,2.58
2023-07-25T11:47:06.438Z,3.75
2023-07-25T11:49:49.411Z,2.70
2023-07-25T11:52:21.150Z,2.33
2023-07-25T11:54:48.879Z,3.25
2023-07-25T11:57:16.670Z,4.57
2023-07-25T11:59:45.022Z,7.80
2023-07-25T12:02:13.994Z,2.90
2023-07-25T12:04:46.160Z,3.53
2023-07-25T12:07:15.384Z,3.45
2023-07-25T12:09:54.564Z,3.55
2023-07-25T12:12:22.573Z,3.83
2023-07-25T12:15:03.079Z,4.43
2023-07-25T12:17:42.355Z,2.35
2023-07-25T12:20:17.970Z,4.63
2023-07-25T12:22:46.723Z,4.07
2023-07-25T12:25:19.434Z,3.65
2023-07-25T12:27:49.299Z,4.28
2023-07-25T12:30:17.369Z,6.25
2023-07-25T12:32:45.244Z,4.70
2023-07-25T12:35:13.140Z,3.53
2023-07-25T12:37:40.713Z,4.13
2023-07-25T12:40:09.504Z,3.88
2023-07-25T12:42:37.075Z,3.00
2023-07-25T12:45:10.501Z,2.10
2023-07-25T12:47:38.978Z,4.00
2023-07-25T12:50:06.929Z,5.93
2023-07-25T12:52:34.498Z,3.55
2023-07-25T12:55:02.120Z,6.18
2023-07-25T12:57:31.096Z,3.03
2023-07-25T12:59:58.744Z,5.53
2023-07-25T13:02:26.546Z,6.28
2023-07-25T13:04:54.202Z,4.65
2023-07-25T13:07:21.794Z,4.72
2023-07-25T13:09:50.313Z,5.03
2023-07-25T13:12:17.861Z,2.70
2023-07-25T13:14:45.655Z,3.28
2023-07-25T13:17:13.220Z,5.47
2023-07-25T13:19:41.120Z,4.32
2023-07-25T13:22:08.807Z,4.25
2023-07-25T13:24:36.671Z,2.70
2023-07-25T13:27:05.176Z,4.32
2023-07-25T13:29:33.040Z,4.60
2023-07-25T13:32:01.075Z,3.78
2023-07-25T13:34:28.968Z,3.83
2023-07-25T13:36:56.497Z,5.93
2023-07-25T13:39:24.103Z,4.35
2023-07-25T13:41:51.761Z,3.78
2023-07-25T13:44:19.613Z,3.22
2023-07-25T13:46:50.936Z,3.40
2023-07-25T13:49:18.662Z,3.97
2023-07-25T13:51:46.425Z,5.55
2023-07-25T13:54:15.530Z,6.15
2023-07-25T13:56:44.009Z,4.40
2023-07-25T13:59:13.458Z,3.00
2023-07-25T14:01:41.518Z,3.97
2023-07-25T14:04:12.796Z,6.45
2023-07-25T14:06:40.505Z,5.28
2023-07-25T14:09:08.115Z,5.80
2023-07-25T14:11:35.803Z,4.15
2023-07-25T14:14:03.556Z,4.40
2023-07-25T14:16:31.336Z,4.82
2023-07-25T14:18:58.949Z,3.63
2023-07-25T14:21:26.518Z,5.30
2023-07-25T14:23:54.242Z,5.75
2023-07-25T14:26:21.989Z,4.80
2023-07-25T14:28:49.691Z,3.22
2023-07-25T14:31:17.616Z,5.55
2023-07-25T14:33:45.480Z,5.38
2023-07-25T14:36:13.480Z,5.47
2023-07-25T14:38:42.612Z,3.17
2023-07-25T14:41:10.822Z,4.82
2023-07-25T14:43:40.807Z,4.57
2023-07-25T14:46:08.517Z,6.57
2023-07-25T14:48:36.200Z,5.07
2023-07-25T14:51:04.298Z,5.95
2023-07-25T14:53:33.445Z,4.38
2023-07-25T14:56:01.223Z,4.15
2023-07-25T14:58:29.530Z,4.30
2023-07-25T15:00:57.413Z,5.20
2023-07-25T15:03:25.204Z,4.13
2023-07-25T15:05:52.881Z,6.82
2023-07-25T15:08:20.616Z,6.70
2023-07-25T15:10:48.658Z,6.25
2023-07-25T15:13:16.346Z,5.22
2023-07-25T15:15:44.339Z,4.03
2023-07-25T15:18:12.002Z,5.07
2023-07-25T15:20:40.105Z,4.43
2023-07-25T15:23:07.745Z,5.63
2023-07-25T15:25:35.511Z,5.68
2023-07-25T15:28:03.559Z,4.75
2023-07-25T15:30:33.122Z,5.05
2023-07-25T15:33:00.975Z,5.03
2023-07-25T15:35:28.884Z,5.55
2023-07-25T15:37:57.261Z,6.72
2023-07-25T15:40:26.623Z,4.85
2023-07-25T15:42:54.372Z,5.40
2023-07-25T15:45:22.053Z,5.45
2023-07-25T15:47:49.892Z,4.72
2023-07-25T15:50:17.618Z,5.18
2023-07-25T15:52:45.607Z,4.90
2023-07-25T15:55:13.153Z,7.78
2023-07-25T15:57:40.835Z,6.15
2023-07-25T16:00:10.474Z,6.22
2023-07-25T16:02:38.491Z,5.50
2023-07-25T16:05:06.345Z,5.10
2023-07-25T16:07:35.821Z,3.88
2023-07-25T16:10:06.606Z,4.15
2023-07-25T16:12:35.277Z,6.95
2023-07-25T16:15:03.150Z,6.25
2023-07-25T16:17:33.930Z,4.60
2023-07-25T16:20:03.441Z,7.43
2023-07-25T16:22:33.317Z,4.20
2023-07-25T16:25:01.079Z,5.25
2023-07-25T16:27:31.471Z,4.35
2023-07-25T16:29:59.756Z,5.68
2023-07-25T16:32:29.625Z,7.10
2023-07-25T16:34:59.357Z,6.25
2023-07-25T16:37:26.931Z,5.35
2023-07-25T16:39:54.543Z,6.00
2023-07-25T16:42:22.225Z,6.50
2023-07-25T16:44:50.405Z,4.07
2023-07-25T16:47:18.020Z,5.65
2023-07-25T16:49:45.768Z,5.78
2023-07-25T16:52:13.494Z,5.55
2023-07-25T16:54:41.131Z,5.57
2023-07-25T16:57:08.779Z,4.97
2023-07-25T16:59:36.408Z,4.95
2023-07-25T17:02:04.410Z,7.32
2023-07-25T17:04:32.071Z,4.78
2023-07-25T17:06:59.776Z,7.20
2023-07-25T17:09:27.516Z,8.25
2023-07-25T17:11:55.162Z,7.07
2023-07-25T17:14:22.783Z,5.63
2023-07-25T17:16:50.447Z,5.47
2023-07-25T17:19:18.183Z,5.57
2023-07-25T17:21:46.046Z,7.60
2023-07-25T17:24:13.902Z,6.88
2023-07-25T17:26:41.533Z,6.15
2023-07-25T17:29:09.320Z,5.47
2023-07-25T17:31:37.096Z,4.60
2023-07-25T17:34:04.965Z,6.57
2023-07-25T17:36:32.522Z,9.25
2023-07-25T17:39:00.270Z,5.88
2023-07-25T17:41:30.514Z,8.57
2023-07-25T17:43:58.892Z,5.13
2023-07-25T17:46:26.638Z,8.57
2023-07-25T17:48:54.845Z,6.57
2023-07-25T17:51:22.840Z,6.05
2023-07-25T17:53:50.681Z,5.80
2023-07-25T17:56:18.530Z,6.63
2023-07-25T17:58:46.078Z,8.55
2023-07-25T18:01:15.073Z,9.48
2023-07-25T18:03:42.912Z,7.28
2023-07-25T18:06:10.577Z,12.27
2023-07-25T18:08:38.432Z,11.65
2023-07-25T18:11:06.553Z,6.50
2023-07-25T18:13:34.930Z,6.95
2023-07-25T18:16:02.923Z,6.57
2023-07-25T18:18:30.701Z,7.95
2023-07-25T18:20:58.422Z,7.78
2023-07-25T18:23:26.178Z,7.03
2023-07-25T18:26:00.818Z,6.25
2023-07-25T18:28:28.910Z,8.40
2023-07-25T18:30:56.510Z,7.43
2023-07-25T18:33:24.680Z,8.75
2023-07-25T18:35:52.303Z,6.50
2023-07-25T18:38:20.057Z,7.40
2023-07-25T18:40:47.676Z,6.10
2023-07-25T18:43:20.692Z,5.68
2023-07-25T18:45:48.570Z,7.50
2023-07-25T18:48:16.361Z,7.50
2023-07-25T18:50:44.915Z,5.85
2023-07-25T18:53:12.686Z,7.07
2023-07-25T18:55:43.113Z,6.43
2023-07-25T18:58:10.823Z,7.57
2023-07-25T19:00:38.521Z,6.85
2023-07-25T19:03:06.417Z,6.97
2023-07-25T19:05:34.172Z,4.13
2023-07-25T19:08:01.882Z,7.50
2023-07-25T19:10:29.573Z,5.78
2023-07-25T19:12:57.316Z,5.05
2023-07-25T19:15:25.022Z,5.03
2023-07-25T19:17:52.764Z,7.18
2023-07-25T19:20:20.474Z,5.18
2023-07-25T19:22:48.238Z,7.25
2023-07-25T19:25:15.895Z,5.80
2023-07-25T19:27:45.728Z,5.78
2023-07-25T19:30:13.488Z,6.35
2023-07-25T19:32:41.115Z,8.88
2023-07-25T19:35:10.472Z,6.15
2023-07-25T19:37:38.354Z,5.70
2023-07-25T19:40:07.967Z,5.15
2023-07-25T19:42:36.524Z,8.68
2023-07-25T19:45:05.486Z,8.27
2023-07-25T19:47:34.072Z,8.00
2023-07-25T19:50:01.725Z,9.05
2023-07-25T19:52:32.258Z,6.25
2023-07-25T19:54:59.901Z,6.00
2023-07-25T19:57:27.598Z,8.25
2023-07-25T19:59:55.269Z,6.90
2023-07-25T20:02:22.875Z,6.20
2023-07-25T20:04:50.564Z,8.35
2023-07-25T20:07:18.129Z,8.50
2023-07-25T20:09:45.697Z,8.80
2023-07-25T20:12:13.513Z,7.28
2023-07-25T20:14:41.040Z,9.73
2023-07-25T20:17:08.630Z,9.05
2023-07-25T20:19:36.216Z,12.32
2023-07-25T20:22:03.969Z,7.68
2023-07-25T20:24:31.751Z,12.45
2023-07-25T20:26:59.428Z,11.75
2023-07-25T20:29:29.966Z,10.65
2023-07-25T20:31:58.237Z,8.90
2023-07-25T20:34:26.054Z,8.95
2023-07-25T20:36:53.721Z,10.43
2023-07-25T20:39:21.569Z,12.05
2023-07-25T20:41:49.247Z,16.58
2023-07-25T20:44:16.878Z,10.10
2023-07-25T20:46:44.562Z,11.27
2023-07-25T20:49:12.296Z,13.77
2023-07-25T20:51:39.911Z,14.43
2023-07-25T20:54:07.748Z,10.10
2023-07-25T20:56:35.433Z,14.32
2023-07-25T20:59:03.086Z,11.00
2023-07-25T21:01:30.828Z,8.68
2023-07-25T21:03:58.713Z,11.63
2023-07-25T21:06:27.015Z,13.30
2023-07-25T21:08:54.695Z,9.90
2023-07-25T21:11:22.471Z,11.65
2023-07-25T21:13:50.177Z,11.40
2023-07-25T21:16:17.946Z,8.25
2023-07-25T21:18:45.589Z,10.60
2023-07-25T21:21:14.225Z,8.50
2023-07-25T21:23:41.969Z,7.90
2023-07-25T21:26:09.504Z,22.77
2023-07-25T21:28:37.114Z,18.83
2023-07-25T21:31:10.592Z,10.73
2023-07-25T21:33:38.736Z,12.43
2023-07-25T21:36:14.645Z,10.80
2023-07-25T21:38:42.853Z,14.52
2023-07-25T21:41:15.998Z,14.35
2023-07-25T21:43:43.787Z,16.75
2023-07-25T21:46:11.527Z,15.57
2023-07-25T21:48:39.450Z,14.75
2023-07-25T21:51:08.139Z,12.45
2023-07-25T21:53:35.802Z,10.48
2023-07-25T21:56:03.417Z,11.23
2023-07-25T21:58:31.319Z,12.48
2023-07-25T22:00:59.633Z,9.90
2023-07-25T22:03:32.061Z,11.77
2023-07-25T22:06:01.070Z,16.83
2023-07-25T22:08:28.839Z,17.23
2023-07-25T22:10:56.679Z,12.57
2023-07-25T22:13:25.099Z,14.10
2023-07-25T22:15:52.781Z,12.88
2023-07-25T22:18:20.542Z,14.63
2023-07-25T22:20:52.373Z,11.75
2023-07-25T22:23:22.098Z,17.42
2023-07-25T22:25:50.338Z,16.20
2023-07-25T22:28:17.974Z,15.55
2023-07-25T22:30:45.643Z,19.60
2023-07-25T22:33:13.310Z,15.43
2023-07-25T22:35:40.932Z,15.52
2023-07-25T22:38:08.531Z,17.13
2023-07-25T22:40:36.502Z,18.80
2023-07-25T22:43:04.397Z,20.17
2023-07-25T22:45:32.094Z,19.40
2023-07-25T22:47:59.866Z,15.93
2023-07-25T22:50:27.446Z,17.73
2023-07-25T22:52:55.108Z,12.35
2023-07-25T22:55:22.720Z,13.73
2023-07-25T22:57:50.413Z,11.95
2023-07-25T23:00:18.191Z,13.23
2023-07-25T23:02:46.186Z,13.25
2023-07-25T23:05:14.218Z,13.38
2023-07-25T23:07:41.895Z,14.27
2023-07-25T23:10:09.917Z,14.35
2023-07-25T23:12:37.554Z,14.98
2023-07-25T23:15:05.891Z,13.20
2023-07-25T23:17:36.367Z,12.55
2023-07-25T23:20:05.185Z,12.85
2023-07-25T23:22:33.449Z,13.80
2023-07-25T23:25:01.390Z,13.25
2023-07-25T23:27:31.600Z,13.98
2023-07-25T23:30:00.106Z,13.43
2023-07-25T23:32:27.925Z,10.65
2023-07-25T23:34:55.639Z,12.75
2023-07-25T23:37:23.367Z,13.43
2023-07-25T23:39:51.353Z,12.27
2023-07-25T23:42:19.097Z,13.35
2023-07-25T23:44:46.688Z,13.50
2023-07-25T23:47:14.558Z,12.45
2023-07-25T23:49:42.263Z,10.52
2023-07-25T23:52:10.066Z,17.30
2023-07-25T23:54:37.914Z,11.88
2023-07-25T23:57:05.989Z,16.45
2023-07-25T23:59:33.654Z,13.57
